Time;durP1;ratioP1;P1;durP2;ratioP2;P2;SDS_P1;SDS_P2;PMS_P1;PMS_P2;Temp;Humidity;BMP_temperature;BMP_pressure;BME280_temperature;BME280_humidity;BME280_pressure;Samples;Min_cycle;Max_cycle;Signal;HPM_P1;HPM_P2
2024/01/18 00:02:10;;;;;;;4.68;0.80;;;1.00;99.90;;;;;;4885545;28;20044;-61
2024/01/18 00:04:36;;;;;;;2.97;1.05;;;1.00;99.90;;;;;;4904035;28;20052;-61
2024/01/18 00:07:01;;;;;;;7.03;1.05;;;1.00;99.90;;;;;;4892798;28;20118;-61
2024/01/18 00:09:30;;;;;;;6.35;0.82;;;1.00;99.90;;;;;;4903697;28;20044;-61
2024/01/18 00:11:56;;;;;;;1.25;0.40;;;1.00;99.90;;;;;;4948653;28;20044;-61
2024/01/18 00:14:22;;;;;;;4.28;0.80;;;0.90;99.90;;;;;;4906925;28;20483;-61
2024/01/18 00:16:47;;;;;;;6.13;0.80;;;0.90;99.90;;;;;;4888100;28;20360;-61
2024/01/18 00:19:13;;;;;;;5.95;0.85;;;0.80;99.90;;;;;;4870926;28;20457;-60
2024/01/18 00:21:39;;;;;;;2.55;0.52;;;0.80;99.90;;;;;;4905018;28;20063;-61
2024/01/18 00:24:06;;;;;;;5.35;0.63;;;0.70;99.90;;;;;;4889159;28;20044;-61
2024/01/18 00:26:32;;;;;;;2.92;0.57;;;0.70;99.90;;;;;;4901765;28;20044;-61
2024/01/18 00:29:00;;;;;;;3.25;0.57;;;0.70;99.90;;;;;;4898910;28;20486;-61
2024/01/18 00:31:26;;;;;;;3.55;0.55;;;0.70;99.90;;;;;;4874380;28;20060;-61
2024/01/18 00:33:57;;;;;;;3.97;0.77;;;0.70;99.90;;;;;;4907342;28;20114;-61
2024/01/18 00:36:27;;;;;;;4.50;0.45;;;0.70;99.90;;;;;;4889053;28;20060;-60
2024/01/18 00:38:52;;;;;;;2.75;0.60;;;0.70;99.90;;;;;;4890711;28;20052;-61
2024/01/18 00:41:18;;;;;;;4.20;0.70;;;0.70;99.90;;;;;;4906032;28;20051;-61
2024/01/18 00:43:44;;;;;;;3.10;0.50;;;0.60;99.90;;;;;;4893891;28;20054;-60
2024/01/18 00:46:09;;;;;;;5.65;1.10;;;0.60;99.90;;;;;;4918535;28;20078;-61
2024/01/18 00:48:35;;;;;;;6.38;0.50;;;0.60;99.90;;;;;;4888028;28;20138;-61
2024/01/18 00:51:01;;;;;;;2.05;0.40;;;0.60;99.90;;;;;;4891152;28;20044;-61
2024/01/18 00:53:27;;;;;;;5.18;1.70;;;0.60;99.90;;;;;;4887506;28;20101;-61
2024/01/18 00:55:52;;;;;;;4.28;0.40;;;0.50;99.90;;;;;;4911472;28;22197;-61
2024/01/18 00:58:18;;;;;;;2.47;0.60;;;0.50;99.90;;;;;;4881355;28;20043;-61
2024/01/18 01:00:44;;;;;;;4.00;0.50;;;0.50;99.90;;;;;;4902664;28;20059;-61
2024/01/18 01:03:09;;;;;;;3.33;0.60;;;0.40;99.90;;;;;;4912367;28;20044;-61
2024/01/18 01:05:35;;;;;;;2.55;0.35;;;0.40;99.90;;;;;;4892678;28;20044;-61
2024/01/18 01:08:01;;;;;;;6.88;0.65;;;0.30;99.90;;;;;;4889500;28;20309;-61
2024/01/18 01:10:26;;;;;;;2.03;0.65;;;0.30;99.90;;;;;;4968386;28;20040;-61
2024/01/18 01:12:52;;;;;;;2.00;0.40;;;0.20;99.90;;;;;;4899739;28;20408;-60
2024/01/18 01:15:18;;;;;;;2.83;0.50;;;0.20;99.90;;;;;;4900754;28;20533;-61
2024/01/18 01:17:44;;;;;;;4.15;0.80;;;0.10;99.90;;;;;;4874522;28;20048;-61
2024/01/18 01:20:10;;;;;;;1.55;0.40;;;0.10;99.90;;;;;;4887260;28;20056;-61
2024/01/18 01:22:36;;;;;;;1.73;0.30;;;0.10;99.90;;;;;;4890167;28;20141;-61
2024/01/18 01:25:02;;;;;;;3.50;0.52;;;0.10;99.90;;;;;;4894974;28;20121;-61
2024/01/18 01:27:28;;;;;;;6.05;0.80;;;0.00;99.90;;;;;;4888863;28;20048;-61
2024/01/18 01:29:54;;;;;;;1.38;0.60;;;0.00;99.90;;;;;;4908406;28;20051;-61
2024/01/18 01:32:19;;;;;;;3.17;1.05;;;0.00;99.90;;;;;;4869477;28;20452;-59
2024/01/18 01:34:45;;;;;;;5.25;1.02;;;-0.10;99.90;;;;;;4891167;28;20335;-61
2024/01/18 01:37:13;;;;;;;2.83;0.85;;;-0.10;99.90;;;;;;4905915;28;20052;-61
2024/01/18 01:39:39;;;;;;;8.75;1.40;;;-0.10;99.90;;;;;;4888795;28;20048;-61
2024/01/18 01:42:05;;;;;;;12.60;1.27;;;-0.10;99.90;;;;;;4890293;28;20048;-61
2024/01/18 01:44:31;;;;;;;3.30;0.95;;;-0.10;99.90;;;;;;4887674;28;20500;-61
2024/01/18 01:46:56;;;;;;;3.08;1.13;;;-0.20;99.90;;;;;;4888868;28;20049;-61
2024/01/18 01:49:22;;;;;;;3.70;1.00;;;-0.10;99.90;;;;;;4890354;28;20127;-61
2024/01/18 01:51:51;;;;;;;5.00;1.60;;;-0.20;99.90;;;;;;4889885;28;20048;-61
2024/01/18 01:54:20;;;;;;;1.95;1.00;;;-0.20;99.90;;;;;;4894528;28;20446;-61
2024/01/18 01:56:49;;;;;;;4.93;0.80;;;-0.20;99.90;;;;;;4891374;28;20056;-61
2024/01/18 01:59:16;;;;;;;2.15;0.70;;;-0.20;99.90;;;;;;4907536;28;20040;-61
2024/01/18 02:01:44;;;;;;;3.35;1.30;;;-0.20;99.90;;;;;;4893770;28;20420;-61
2024/01/18 02:04:11;;;;;;;2.78;1.15;;;-0.20;99.90;;;;;;4909025;28;20044;-61
2024/01/18 02:06:38;;;;;;;5.22;1.63;;;-0.20;99.90;;;;;;4908475;28;20052;-61
2024/01/18 02:09:05;;;;;;;5.18;1.83;;;-0.20;99.90;;;;;;4892524;28;20051;-61
2024/01/18 02:11:31;;;;;;;6.47;1.60;;;-0.20;99.90;;;;;;4903355;28;20772;-61
2024/01/18 02:13:57;;;;;;;4.82;2.00;;;-0.20;99.90;;;;;;4892559;28;20131;-60
2024/01/18 02:16:24;;;;;;;5.28;2.10;;;-0.20;99.90;;;;;;4890519;28;20138;-60
2024/01/18 02:18:49;;;;;;;5.20;1.52;;;-0.20;99.90;;;;;;4895594;28;20147;-61
2024/01/18 02:21:15;;;;;;;6.30;1.80;;;-0.20;99.90;;;;;;4892816;28;20503;-61
2024/01/18 02:23:44;;;;;;;4.85;1.70;;;-0.20;99.90;;;;;;4895439;28;20048;-61
2024/01/18 02:26:10;;;;;;;5.20;1.92;;;-0.20;99.90;;;;;;4925217;28;20047;-61
2024/01/18 02:28:36;;;;;;;4.22;2.10;;;-0.10;99.90;;;;;;4887128;28;20091;-60
2024/01/18 02:31:02;;;;;;;3.75;1.02;;;-0.20;99.90;;;;;;4917255;28;20042;-61
2024/01/18 02:33:28;;;;;;;4.63;0.90;;;-0.20;99.90;;;;;;4893426;28;20048;-61
2024/01/18 02:35:54;;;;;;;5.25;1.30;;;-0.20;99.90;;;;;;4893820;28;20171;-61
2024/01/18 02:38:20;;;;;;;1.65;0.82;;;-0.20;99.90;;;;;;4906713;28;20068;-61
2024/01/18 02:40:46;;;;;;;2.67;0.73;;;-0.20;99.90;;;;;;4906205;28;20144;-61
2024/01/18 02:43:12;;;;;;;3.85;0.80;;;-0.30;99.90;;;;;;4933856;28;20552;-61
2024/01/18 02:45:38;;;;;;;6.07;0.70;;;-0.30;99.90;;;;;;4932528;28;20052;-61
2024/01/18 02:48:04;;;;;;;3.78;0.75;;;-0.30;99.90;;;;;;4880852;28;20048;-61
2024/01/18 02:50:30;;;;;;;3.88;1.02;;;-0.30;99.90;;;;;;4898152;28;20044;-61
2024/01/18 02:52:56;;;;;;;1.70;0.50;;;-0.30;99.90;;;;;;4899927;28;20493;-61
2024/01/18 02:55:21;;;;;;;7.80;0.93;;;-0.20;99.90;;;;;;4921184;28;20037;-61
2024/01/18 02:57:47;;;;;;;1.85;0.45;;;-0.20;99.90;;;;;;4874786;28;20049;-61
2024/01/18 03:00:13;;;;;;;3.42;0.57;;;-0.30;99.90;;;;;;4899394;28;20135;-60
2024/01/18 03:02:38;;;;;;;1.40;0.55;;;-0.30;99.90;;;;;;4901567;28;20036;-61
2024/01/18 03:05:05;;;;;;;2.38;0.63;;;-0.30;99.90;;;;;;4894004;28;20074;-61
2024/01/18 03:07:33;;;;;;;1.92;0.55;;;-0.30;99.90;;;;;;4901275;28;20044;-61
2024/01/18 03:09:58;;;;;;;5.55;0.90;;;-0.40;99.90;;;;;;4896675;28;20038;-61
2024/01/18 03:12:24;;;;;;;8.93;0.90;;;-0.30;99.90;;;;;;4871965;28;20054;-61
2024/01/18 03:14:50;;;;;;;5.15;0.70;;;-0.10;99.90;;;;;;4892042;28;20048;-61
2024/01/18 03:17:15;;;;;;;6.95;0.60;;;0.10;99.90;;;;;;4914055;28;20131;-61
2024/01/18 03:19:41;;;;;;;3.10;0.52;;;0.20;99.90;;;;;;4890942;28;20526;-61
2024/01/18 03:22:07;;;;;;;3.40;0.60;;;0.30;99.90;;;;;;4871413;28;20051;-62
2024/01/18 03:24:33;;;;;;;2.65;0.50;;;0.30;99.90;;;;;;4902119;28;20092;-61
2024/01/18 03:26:58;;;;;;;3.13;0.35;;;0.40;99.90;;;;;;4887850;28;20518;-61
2024/01/18 03:29:24;;;;;;;3.35;0.40;;;0.50;99.90;;;;;;4874285;28;20114;-61
2024/01/18 03:31:50;;;;;;;1.38;0.35;;;0.50;99.90;;;;;;4901743;28;20044;-62
2024/01/18 03:34:15;;;;;;;2.22;0.43;;;0.60;99.90;;;;;;4890982;28;20055;-62
2024/01/18 03:36:41;;;;;;;3.83;0.38;;;0.60;99.90;;;;;;4889570;28;20133;-61
2024/01/18 03:39:07;;;;;;;4.68;0.40;;;0.60;99.90;;;;;;4906587;28;20040;-62
2024/01/18 03:41:32;;;;;;;1.33;0.40;;;0.60;99.90;;;;;;4890498;28;20052;-61
2024/01/18 03:43:58;;;;;;;2.78;0.45;;;0.60;99.90;;;;;;4905180;28;20492;-61
2024/01/18 03:46:24;;;;;;;4.10;0.52;;;0.60;99.90;;;;;;4914179;28;20040;-61
2024/01/18 03:48:49;;;;;;;1.48;0.30;;;0.60;99.90;;;;;;4915603;28;20475;-61
2024/01/18 03:51:15;;;;;;;4.00;0.40;;;0.60;99.90;;;;;;4895506;28;20048;-61
2024/01/18 03:53:44;;;;;;;3.35;0.50;;;0.50;99.90;;;;;;4901077;28;20430;-62
2024/01/18 03:56:12;;;;;;;1.10;0.38;;;0.50;99.90;;;;;;4880986;28;20052;-61
2024/01/18 03:58:38;;;;;;;4.07;0.70;;;0.40;99.90;;;;;;4904240;28;20091;-61
2024/01/18 04:01:04;;;;;;;2.47;0.63;;;0.40;99.90;;;;;;4889485;28;20531;-61
2024/01/18 04:03:30;;;;;;;3.28;0.80;;;0.30;99.90;;;;;;4909529;28;20072;-62
2024/01/18 04:05:55;;;;;;;2.92;1.08;;;0.30;99.90;;;;;;4895136;28;20033;-61
2024/01/18 04:08:21;;;;;;;6.35;1.60;;;0.20;99.90;;;;;;4894833;28;20098;-61
2024/01/18 04:10:47;;;;;;;5.50;2.20;;;0.20;99.90;;;;;;4905778;28;20052;-61
2024/01/18 04:13:13;;;;;;;5.68;3.53;;;0.10;99.90;;;;;;4900849;28;20047;-63
2024/01/18 04:15:38;;;;;;;9.07;4.43;;;0.10;99.90;;;;;;4904441;28;20051;-63
2024/01/18 04:18:04;;;;;;;9.77;4.50;;;0.10;99.90;;;;;;4886936;28;20078;-62
2024/01/18 04:20:30;;;;;;;6.57;3.92;;;0.00;99.90;;;;;;4872065;28;20071;-63
2024/01/18 04:22:56;;;;;;;6.25;3.05;;;-0.10;99.90;;;;;;4879043;28;20172;-63
2024/01/18 04:25:22;;;;;;;4.45;2.70;;;-0.20;99.90;;;;;;4889613;28;20068;-63
2024/01/18 04:27:47;;;;;;;3.60;1.88;;;-0.20;99.90;;;;;;4887015;29;20082;-63
2024/01/18 04:30:13;;;;;;;3.40;1.65;;;-0.30;99.90;;;;;;4907724;29;20043;-64
2024/01/18 04:32:39;;;;;;;10.10;2.92;;;-0.30;99.90;;;;;;4907958;28;20044;-63
2024/01/18 04:35:05;;;;;;;3.35;0.73;;;-0.30;99.90;;;;;;4907445;28;20378;-64
2024/01/18 04:37:31;;;;;;;2.63;0.60;;;-0.20;99.90;;;;;;4897261;28;20183;-63
2024/01/18 04:39:57;;;;;;;1.00;0.43;;;-0.10;99.90;;;;;;4901580;28;20039;-63
2024/01/18 04:42:22;;;;;;;3.88;0.63;;;0.00;99.90;;;;;;4884132;28;20036;-63
2024/01/18 04:44:48;;;;;;;4.18;0.65;;;0.00;99.90;;;;;;4874413;28;20471;-63
2024/01/18 04:47:14;;;;;;;3.17;0.65;;;0.00;99.90;;;;;;4893190;28;20048;-63
2024/01/18 04:49:39;;;;;;;4.40;0.65;;;0.00;99.90;;;;;;4888847;28;20074;-64
2024/01/18 04:52:05;;;;;;;4.95;1.60;;;0.00;99.90;;;;;;4889427;28;20127;-64
2024/01/18 04:54:32;;;;;;;5.10;1.40;;;0.00;99.90;;;;;;4903993;28;20032;-63
2024/01/18 04:56:58;;;;;;;4.88;1.13;;;0.00;99.90;;;;;;4900529;28;20083;-63
2024/01/18 04:59:24;;;;;;;8.25;3.30;;;0.00;99.90;;;;;;4897707;28;20614;-63
2024/01/18 05:01:50;;;;;;;9.18;3.20;;;0.00;99.90;;;;;;4880201;29;20049;-63
2024/01/18 05:04:18;;;;;;;6.57;2.00;;;0.00;99.90;;;;;;4895146;28;20052;-63
2024/01/18 05:06:44;;;;;;;7.35;1.30;;;0.10;99.90;;;;;;4877699;28;20044;-63
2024/01/18 05:09:10;;;;;;;4.60;0.65;;;0.10;99.90;;;;;;4889118;29;20598;-63
2024/01/18 05:11:35;;;;;;;5.28;1.23;;;0.30;99.90;;;;;;4886998;28;20474;-63
2024/01/18 05:14:01;;;;;;;7.13;1.17;;;0.40;99.90;;;;;;4888722;28;20123;-63
2024/01/18 05:16:27;;;;;;;3.83;1.00;;;0.40;99.90;;;;;;4908756;28;20052;-64
2024/01/18 05:18:56;;;;;;;3.10;0.75;;;0.50;99.90;;;;;;4900898;28;20137;-63
2024/01/18 05:21:23;;;;;;;7.72;0.75;;;0.50;99.90;;;;;;4904125;28;20099;-63
2024/01/18 05:23:49;;;;;;;4.28;0.95;;;0.60;99.90;;;;;;4875157;29;20512;-63
2024/01/18 05:26:15;;;;;;;5.40;0.70;;;0.70;99.90;;;;;;4888516;28;20087;-62
2024/01/18 05:28:40;;;;;;;5.50;0.80;;;0.80;99.90;;;;;;4876689;28;20650;-63
2024/01/18 05:31:07;;;;;;;2.60;0.52;;;0.80;99.90;;;;;;4901139;28;20070;-63
2024/01/18 05:33:33;;;;;;;5.57;0.77;;;0.80;99.90;;;;;;4905219;28;20665;-63
2024/01/18 05:35:58;;;;;;;6.63;0.40;;;0.70;99.90;;;;;;4973165;28;20048;-63
2024/01/18 05:38:24;;;;;;;3.80;1.27;;;0.60;99.90;;;;;;4894463;28;20058;-63
2024/01/18 05:40:50;;;;;;;2.53;0.80;;;0.40;99.90;;;;;;4894341;28;20127;-63
2024/01/18 05:43:16;;;;;;;1.55;0.50;;;0.30;99.90;;;;;;4891479;28;20667;-63
2024/01/18 05:45:42;;;;;;;2.00;0.70;;;0.20;99.90;;;;;;4893017;28;20052;-63
2024/01/18 05:48:08;;;;;;;3.40;0.80;;;0.10;99.90;;;;;;4897218;28;20044;-63
2024/01/18 05:50:33;;;;;;;4.07;1.13;;;0.00;99.90;;;;;;4894481;28;20048;-64
2024/01/18 05:52:59;;;;;;;3.10;0.77;;;0.00;99.90;;;;;;4893390;28;20050;-64
2024/01/18 05:55:25;;;;;;;1.55;0.65;;;-0.10;99.90;;;;;;4898574;28;20689;-63
2024/01/18 05:57:50;;;;;;;3.83;1.00;;;-0.10;99.90;;;;;;4908718;28;20082;-63
2024/01/18 06:00:16;;;;;;;3.45;0.82;;;-0.10;99.90;;;;;;4875720;28;20044;-63
2024/01/18 06:02:42;;;;;;;7.57;1.38;;;-0.10;99.90;;;;;;4886820;28;20103;-63
2024/01/18 06:05:08;;;;;;;4.15;0.75;;;-0.10;99.90;;;;;;4908431;29;20545;-63
2024/01/18 06:07:33;;;;;;;3.90;1.10;;;-0.10;99.90;;;;;;4908844;28;20059;-64
2024/01/18 06:10:03;;;;;;;6.20;0.90;;;-0.10;99.90;;;;;;4891788;29;20040;-63
2024/01/18 06:12:29;;;;;;;2.72;0.80;;;-0.20;99.90;;;;;;4890819;28;21193;-63
2024/01/18 06:14:55;;;;;;;6.63;1.67;;;-0.20;99.90;;;;;;4918983;28;20485;-63
2024/01/18 06:17:20;;;;;;;5.82;3.05;;;-0.20;99.90;;;;;;4901813;28;20055;-63
2024/01/18 06:19:46;;;;;;;8.23;3.33;;;-0.20;99.90;;;;;;4908906;29;20036;-64
2024/01/18 06:22:12;;;;;;;8.52;3.13;;;-0.30;99.90;;;;;;4896845;28;20071;-63
2024/01/18 06:24:37;;;;;;;38.25;32.13;;;-0.30;99.90;;;;;;4897877;28;20049;-63
2024/01/18 06:27:03;;;;;;;7.45;3.10;;;-0.40;99.90;;;;;;4900796;28;20483;-64
2024/01/18 06:29:30;;;;;;;4.82;2.05;;;-0.50;99.90;;;;;;4888564;29;20055;-63
2024/01/18 06:31:56;;;;;;;8.35;1.17;;;-0.60;99.90;;;;;;4904508;28;20504;-63
2024/01/18 06:34:22;;;;;;;5.25;1.10;;;-0.60;99.90;;;;;;4905763;28;20443;-63
2024/01/18 06:36:49;;;;;;;4.68;1.25;;;-0.60;99.90;;;;;;4890556;29;20044;-64
2024/01/18 06:39:15;;;;;;;5.28;1.38;;;-0.60;99.90;;;;;;4970146;28;20062;-64
2024/01/18 06:41:41;;;;;;;5.97;1.23;;;-0.60;99.90;;;;;;4878185;28;20052;-64
2024/01/18 06:44:07;;;;;;;5.75;1.27;;;-0.70;99.90;;;;;;4898478;28;20123;-64
2024/01/18 06:46:33;;;;;;;3.72;1.00;;;-0.80;99.90;;;;;;4913859;28;20174;-63
2024/01/18 06:49:00;;;;;;;5.13;2.25;;;-0.80;99.90;;;;;;4916302;28;20028;-64
2024/01/18 06:51:26;;;;;;;6.25;1.73;;;-0.90;99.90;;;;;;4913122;28;20183;-64
2024/01/18 06:53:52;;;;;;;5.68;2.13;;;-0.90;99.90;;;;;;4893778;28;20135;-64
2024/01/18 06:56:18;;;;;;;7.90;2.97;;;-0.80;99.90;;;;;;4879923;28;20046;-64
2024/01/18 06:58:44;;;;;;;8.60;2.25;;;-0.70;99.90;;;;;;4900082;28;20117;-64
2024/01/18 07:01:10;;;;;;;6.47;2.60;;;-0.50;99.90;;;;;;4895569;28;20161;-64
2024/01/18 07:03:36;;;;;;;3.78;2.22;;;-0.40;99.90;;;;;;4877692;28;20418;-63
2024/01/18 07:06:05;;;;;;;12.43;2.57;;;-0.40;99.90;;;;;;4877068;29;20147;-64
2024/01/18 07:08:31;;;;;;;7.43;2.40;;;-0.40;99.90;;;;;;4889018;28;20060;-64
2024/01/18 07:10:57;;;;;;;7.18;2.30;;;-0.40;99.90;;;;;;4906067;28;21573;-64
2024/01/18 07:13:23;;;;;;;6.27;2.23;;;-0.50;99.90;;;;;;4906369;28;20078;-63
2024/01/18 07:15:49;;;;;;;5.20;2.10;;;-0.50;99.90;;;;;;4918645;28;20056;-64
2024/01/18 07:18:15;;;;;;;6.93;1.90;;;-0.50;99.90;;;;;;4893149;28;20548;-64
2024/01/18 07:20:40;;;;;;;7.10;1.90;;;-0.50;99.90;;;;;;4905208;28;20392;-63
2024/01/18 07:23:06;;;;;;;8.45;1.98;;;-0.50;99.90;;;;;;4894528;28;20496;-64
2024/01/18 07:25:32;;;;;;;4.30;1.70;;;-0.50;99.90;;;;;;4888266;28;20048;-64
2024/01/18 07:27:58;;;;;;;9.30;1.88;;;-0.40;99.90;;;;;;4900666;28;20530;-63
2024/01/18 07:30:23;;;;;;;7.13;1.75;;;-0.50;99.90;;;;;;4887223;28;20052;-63
2024/01/18 07:32:49;;;;;;;3.40;1.45;;;-0.50;99.90;;;;;;4891499;28;21628;-63
2024/01/18 07:35:15;;;;;;;3.42;2.00;;;-0.50;99.90;;;;;;4899583;28;20405;-64
2024/01/18 07:37:41;;;;;;;8.63;3.63;;;-0.50;99.90;;;;;;4912807;28;20444;-63
2024/01/18 07:40:08;;;;;;;9.65;3.85;;;-0.40;99.90;;;;;;4905719;28;20044;-63
2024/01/18 07:42:33;;;;;;;14.80;4.03;;;-0.40;99.90;;;;;;4877149;28;20051;-64
2024/01/18 07:44:59;;;;;;;8.23;3.20;;;-0.40;99.90;;;;;;4911428;28;20052;-63
2024/01/18 07:47:25;;;;;;;9.23;3.80;;;-0.40;99.90;;;;;;4874021;28;20064;-64
2024/01/18 07:49:51;;;;;;;7.57;2.65;;;-0.50;99.90;;;;;;4893032;28;20106;-63
2024/01/18 07:52:17;;;;;;;10.65;3.42;;;-0.50;99.90;;;;;;4890526;28;20512;-64
2024/01/18 07:54:43;;;;;;;5.78;2.30;;;-0.50;99.90;;;;;;4892216;28;20052;-63
2024/01/18 07:57:09;;;;;;;7.47;2.60;;;-0.50;99.90;;;;;;4895815;28;20518;-63
2024/01/18 07:59:35;;;;;;;7.07;2.20;;;-0.50;99.90;;;;;;4872882;28;20048;-63
2024/01/18 08:02:00;;;;;;;7.97;1.70;;;-0.50;99.90;;;;;;4870981;28;20047;-63
2024/01/18 08:04:27;;;;;;;9.40;2.22;;;-0.50;99.90;;;;;;4874643;28;20048;-63
2024/01/18 08:06:52;;;;;;;8.00;1.48;;;-0.50;99.90;;;;;;4877050;28;20175;-63
2024/01/18 08:09:18;;;;;;;6.53;1.50;;;-0.40;99.90;;;;;;4905876;28;20119;-63
2024/01/18 08:11:44;;;;;;;3.57;1.40;;;-0.40;99.90;;;;;;4889788;28;20187;-63
2024/01/18 08:14:11;;;;;;;6.22;1.60;;;-0.40;99.90;;;;;;4891094;29;20040;-63
2024/01/18 08:16:37;;;;;;;6.22;1.73;;;-0.40;99.90;;;;;;4902826;28;20466;-63
2024/01/18 08:19:02;;;;;;;4.88;1.40;;;-0.40;99.90;;;;;;4901202;28;20071;-63
2024/01/18 08:21:28;;;;;;;6.43;1.50;;;-0.40;99.90;;;;;;4889060;29;20052;-63
2024/01/18 08:23:54;;;;;;;4.35;1.23;;;-0.30;99.90;;;;;;4893800;28;20068;-63
2024/01/18 08:26:21;;;;;;;4.32;1.42;;;-0.30;99.90;;;;;;4904669;28;20128;-64
2024/01/18 08:32:31;;;;;;;4.68;1.60;;;-0.20;99.90;;;;;;4916451;28;20050;-63
2024/01/18 08:34:58;;;;;;;9.15;1.75;;;-0.10;99.90;;;;;;4967430;28;20174;-64
2024/01/18 08:37:23;;;;;;;5.70;1.60;;;0.00;99.90;;;;;;4880969;28;20048;-63
2024/01/18 08:39:50;;;;;;;15.88;2.47;;;0.10;99.90;;;;;;4913973;28;20087;-63
2024/01/18 08:42:15;;;;;;;6.85;2.05;;;0.20;99.90;;;;;;4906531;28;20146;-63
2024/01/18 08:44:45;;;;;;;5.55;1.20;;;0.30;99.90;;;;;;4910863;28;20480;-63
2024/01/18 08:47:12;;;;;;;4.93;1.33;;;0.30;99.90;;;;;;4880191;28;20058;-63
2024/01/18 08:49:38;;;;;;;8.38;2.50;;;0.40;99.90;;;;;;4900002;28;20102;-63
2024/01/18 08:52:03;;;;;;;3.88;1.30;;;0.40;99.90;;;;;;4895596;28;20056;-63
2024/01/18 08:54:30;;;;;;;4.38;1.10;;;0.40;99.90;;;;;;4897764;28;20044;-63
2024/01/18 08:56:56;;;;;;;5.68;1.73;;;0.50;99.90;;;;;;4873862;28;20075;-63
2024/01/18 08:59:23;;;;;;;6.40;1.40;;;0.50;99.90;;;;;;4905322;28;20090;-63
2024/01/18 09:01:49;;;;;;;6.50;1.60;;;0.50;99.90;;;;;;4888116;28;20130;-63
2024/01/18 09:04:16;;;;;;;5.72;1.38;;;0.60;99.90;;;;;;4880972;28;20058;-63
2024/01/18 09:06:45;;;;;;;5.13;1.25;;;0.60;99.90;;;;;;4895375;28;20055;-63
2024/01/18 09:09:11;;;;;;;5.80;1.45;;;0.60;99.90;;;;;;4888790;28;20098;-64
2024/01/18 09:11:38;;;;;;;6.03;1.30;;;0.70;99.90;;;;;;4902495;28;20102;-63
2024/01/18 09:14:04;;;;;;;2.97;1.20;;;0.80;99.90;;;;;;4902595;28;20075;-63
2024/01/18 09:16:33;;;;;;;6.55;1.73;;;0.90;99.90;;;;;;4905214;29;20131;-63
2024/01/18 09:18:59;;;;;;;6.65;2.25;;;1.00;99.90;;;;;;4904351;28;20129;-63
2024/01/18 09:21:25;;;;;;;10.18;2.10;;;1.00;99.90;;;;;;4900351;28;20055;-63
2024/01/18 09:23:51;;;;;;;4.50;1.23;;;1.00;99.90;;;;;;4892163;28;20040;-63
2024/01/18 09:26:17;;;;;;;8.32;2.40;;;1.10;99.90;;;;;;4904562;28;20044;-63
2024/01/18 09:28:44;;;;;;;5.18;4.07;;;1.20;99.90;;;;;;4894312;28;20129;-63
2024/01/18 09:31:10;;;;;;;12.70;8.65;;;1.20;99.90;;;;;;4968957;28;20186;-63
2024/01/18 09:33:39;;;;;;;9.05;7.28;;;1.30;99.90;;;;;;4875595;29;20044;-63
2024/01/18 09:36:06;;;;;;;7.65;1.90;;;1.40;99.90;;;;;;4892350;28;20175;-63
2024/01/18 09:38:33;;;;;;;8.77;1.45;;;1.50;99.90;;;;;;4905603;28;20625;-63
2024/01/18 09:41:06;;;;;;;3.22;1.40;;;1.60;99.90;;;;;;4907101;28;20040;-64
2024/01/18 09:43:39;;;;;;;3.77;1.37;;;1.70;99.90;;;;;;4895920;28;20158;-63
2024/01/18 09:46:07;;;;;;;6.07;1.13;;;1.80;99.90;;;;;;4892669;28;20050;-64
2024/01/18 09:48:36;;;;;;;2.38;0.80;;;1.90;99.90;;;;;;4902791;28;20048;-63
2024/01/18 09:51:09;;;;;;;11.32;1.38;;;2.20;99.90;;;;;;4889586;28;20091;-63
2024/01/18 09:53:36;;;;;;;3.50;2.08;;;2.50;99.90;;;;;;4887164;28;20040;-63
2024/01/18 09:56:30;;;;;;;3.58;0.95;;;2.50;99.90;;;;;;4902591;28;20052;-63
2024/01/18 09:58:57;;;;;;;5.97;1.08;;;2.40;99.90;;;;;;4896662;28;20084;-64
2024/01/18 10:01:23;;;;;;;3.38;1.00;;;2.40;99.90;;;;;;4868987;28;20044;-64
2024/01/18 10:03:50;;;;;;;4.13;1.13;;;2.40;99.90;;;;;;4908127;28;20118;-63
2024/01/18 10:06:19;;;;;;;0.93;0.63;;;2.30;99.90;;;;;;4893381;28;20126;-63
2024/01/18 10:08:46;;;;;;;3.47;0.60;;;2.40;99.90;;;;;;4903095;28;20423;-64
2024/01/18 10:11:12;;;;;;;1.73;0.60;;;2.40;99.90;;;;;;4921989;28;20180;-64
2024/01/18 10:13:54;;;;;;;10.68;1.55;;;2.40;99.90;;;;;;4910084;28;20143;-63
2024/01/18 10:16:32;;;;;;;4.75;0.88;;;2.50;99.90;;;;;;4922542;28;20050;-63
2024/01/18 10:19:01;;;;;;;4.53;0.65;;;2.50;99.90;;;;;;4888709;28;20056;-64
2024/01/18 10:21:31;;;;;;;4.88;1.00;;;2.40;99.90;;;;;;4903404;28;20450;-64
2024/01/18 10:23:57;;;;;;;3.03;0.65;;;2.40;99.90;;;;;;4891661;28;20308;-63
2024/01/18 10:26:35;;;;;;;1.90;0.40;;;2.40;99.90;;;;;;4903252;28;20179;-63
2024/01/18 10:29:01;;;;;;;2.67;0.47;;;2.40;99.90;;;;;;4901806;28;20049;-63
2024/01/18 10:31:31;;;;;;;3.05;0.95;;;2.40;99.90;;;;;;4907844;28;20048;-64
2024/01/18 10:33:56;;;;;;;3.38;0.90;;;2.40;99.90;;;;;;4888899;28;20482;-64
2024/01/18 10:36:22;;;;;;;5.15;1.23;;;2.30;99.90;;;;;;4888725;28;20052;-63
2024/01/18 10:38:49;;;;;;;6.05;1.25;;;2.30;99.90;;;;;;4906551;28;20042;-64
2024/01/18 10:41:21;;;;;;;5.82;1.60;;;2.40;99.90;;;;;;4893320;28;20051;-63
2024/01/18 10:43:50;;;;;;;3.80;0.98;;;2.50;99.90;;;;;;4881617;28;20052;-64
2024/01/18 10:46:17;;;;;;;2.25;0.80;;;2.50;99.90;;;;;;4904488;28;21242;-64
2024/01/18 10:48:49;;;;;;;9.15;2.80;;;2.50;99.90;;;;;;4909391;28;20403;-64
2024/01/18 10:51:16;;;;;;;4.70;1.08;;;2.50;99.90;;;;;;4898264;28;20463;-63
2024/01/18 10:53:46;;;;;;;2.33;0.80;;;2.50;99.90;;;;;;4908905;28;20044;-64
2024/01/18 10:56:12;;;;;;;3.80;0.70;;;2.40;99.90;;;;;;4879091;28;20583;-63
2024/01/18 10:58:38;;;;;;;5.85;0.85;;;2.40;99.90;;;;;;4892720;28;20040;-63
2024/01/18 11:01:05;;;;;;;2.55;0.50;;;2.30;99.90;;;;;;4890284;28;20079;-64
2024/01/18 11:03:31;;;;;;;3.65;0.80;;;2.30;99.90;;;;;;4911764;28;20089;-63
2024/01/18 11:05:59;;;;;;;5.85;1.15;;;2.30;99.90;;;;;;4879032;28;20090;-63
2024/01/18 11:08:26;;;;;;;2.17;0.73;;;2.20;99.90;;;;;;4905623;28;20667;-63
2024/01/18 11:10:52;;;;;;;6.57;1.77;;;2.20;99.90;;;;;;4907741;28;20110;-63
2024/01/18 11:13:18;;;;;;;6.13;1.40;;;2.30;99.90;;;;;;4907720;28;20767;-64
2024/01/18 11:15:46;;;;;;;6.30;1.58;;;2.20;99.90;;;;;;4891081;28;20607;-63
2024/01/18 11:18:13;;;;;;;11.90;2.92;;;2.10;99.90;;;;;;4886638;28;20515;-63
2024/01/18 11:20:57;;;;;;;8.73;2.85;;;2.10;99.90;;;;;;4890743;28;20047;-63
2024/01/18 11:23:39;;;;;;;4.95;2.15;;;2.10;99.90;;;;;;4906057;29;20287;-64
2024/01/18 11:26:07;;;;;;;7.97;2.97;;;2.10;99.90;;;;;;4889968;28;20131;-64
2024/01/18 11:28:34;;;;;;;11.93;5.28;;;2.30;99.90;;;;;;4890293;28;20627;-64
2024/01/18 11:31:00;;;;;;;13.35;5.43;;;2.50;99.90;;;;;;4884590;28;20388;-64
2024/01/18 11:33:27;;;;;;;4.15;2.45;;;2.70;99.90;;;;;;4894758;28;20060;-63
2024/01/18 11:35:53;;;;;;;5.72;1.08;;;2.90;99.90;;;;;;4912914;28;20040;-65
2024/01/18 11:38:21;;;;;;;3.47;1.05;;;3.00;99.90;;;;;;4893345;28;20439;-64
2024/01/18 11:40:51;;;;;;;5.05;2.40;;;3.10;99.90;;;;;;4892353;28;20048;-64
2024/01/18 11:43:17;;;;;;;8.85;2.10;;;3.30;99.90;;;;;;4910595;28;20042;-64
2024/01/18 11:45:51;;;;;;;6.15;1.98;;;3.50;99.90;;;;;;4895846;28;20055;-64
2024/01/18 11:48:18;;;;;;;4.30;1.23;;;3.60;99.90;;;;;;4894995;28;20102;-65
2024/01/18 11:50:44;;;;;;;2.92;1.15;;;3.80;99.90;;;;;;4891044;28;20051;-65
2024/01/18 11:53:14;;;;;;;5.03;2.40;;;3.90;99.90;;;;;;4892673;28;20062;-64
2024/01/18 11:55:45;;;;;;;4.93;1.30;;;3.90;99.90;;;;;;4905720;28;20055;-65
2024/01/18 11:58:12;;;;;;;6.65;2.28;;;3.90;99.90;;;;;;4888947;28;20044;-64
2024/01/18 12:00:37;;;;;;;9.13;3.75;;;4.00;99.90;;;;;;4891002;28;20437;-64
2024/01/18 12:03:05;;;;;;;6.47;3.10;;;4.10;99.90;;;;;;4893097;28;20142;-64
2024/01/18 12:05:31;;;;;;;6.22;1.20;;;4.10;99.90;;;;;;4900293;28;20059;-64
2024/01/18 12:07:57;;;;;;;5.97;1.60;;;4.20;99.90;;;;;;4890331;28;20046;-65
2024/01/18 12:10:26;;;;;;;6.45;1.30;;;4.20;99.90;;;;;;4888697;28;20048;-65
2024/01/18 12:12:52;;;;;;;6.53;1.40;;;4.20;99.90;;;;;;4896593;28;20048;-64
2024/01/18 12:15:18;;;;;;;6.38;1.40;;;4.20;99.90;;;;;;4889626;28;20619;-65
2024/01/18 12:17:45;;;;;;;6.40;1.20;;;4.40;99.90;;;;;;4883405;28;20032;-64
2024/01/18 12:20:16;;;;;;;10.13;1.52;;;4.30;99.90;;;;;;4898364;28;20454;-64
2024/01/18 12:22:43;;;;;;;5.05;1.30;;;4.40;99.90;;;;;;4895961;28;20072;-65
2024/01/18 12:25:09;;;;;;;4.95;1.00;;;4.30;99.90;;;;;;4902724;28;20042;-64
2024/01/18 12:27:36;;;;;;;9.95;2.85;;;4.40;99.90;;;;;;4889727;28;20167;-65
2024/01/18 12:30:03;;;;;;;10.88;1.60;;;4.40;99.90;;;;;;4873552;28;20052;-65
2024/01/18 12:32:29;;;;;;;4.25;1.10;;;4.40;99.90;;;;;;4900261;28;20059;-64
2024/01/18 12:34:57;;;;;;;5.40;1.08;;;4.50;99.90;;;;;;4889087;28;20040;-64
2024/01/18 12:37:23;;;;;;;5.93;1.83;;;4.50;99.90;;;;;;4914794;28;20045;-63
2024/01/18 12:39:51;;;;;;;5.43;1.38;;;4.40;99.90;;;;;;4892010;28;20040;-64
2024/01/18 12:42:17;;;;;;;6.00;1.75;;;4.40;99.90;;;;;;4887683;28;20048;-64
2024/01/18 12:44:43;;;;;;;8.13;2.30;;;4.40;99.90;;;;;;4891337;28;20036;-64
2024/01/18 12:47:09;;;;;;;8.50;1.25;;;4.40;99.90;;;;;;4877434;28;20123;-63
2024/01/18 12:49:34;;;;;;;9.20;1.40;;;4.40;99.90;;;;;;4893445;28;20048;-64
2024/01/18 12:52:01;;;;;;;6.68;1.60;;;4.40;99.90;;;;;;4881697;28;20036;-64
2024/01/18 12:54:30;;;;;;;5.20;1.27;;;4.40;99.90;;;;;;4891537;28;20049;-64